Time;durP1;ratioP1;P1;durP2;ratioP2;P2;SDS_P1;SDS_P2;PMS_P1;PMS_P2;Temp;Humidity;BMP_temperature;BMP_pressure;BME280_temperature;BME280_humidity;BME280_pressure;Samples;Min_cycle;Max_cycle;Signal;HPM_P1;HPM_P2
2022/06/30 00:02:01;;;;;;;7.30;5.63;;;20.30;16.90;;;;;;7385456;19;20473;-62
2022/06/30 00:04:31;;;;;;;6.75;5.43;;;20.40;16.50;;;;;;7363466;19;20128;-61
2022/06/30 00:07:01;;;;;;;8.15;5.75;;;20.50;16.20;;;;;;7362490;19;20014;-61
2022/06/30 00:09:31;;;;;;;9.68;6.13;;;20.50;15.90;;;;;;7364010;19;20019;-62
2022/06/30 00:12:03;;;;;;;7.32;5.90;;;20.60;15.00;;;;;;7363376;19;20474;-61
2022/06/30 00:14:33;;;;;;;8.98;5.95;;;20.40;16.00;;;;;;7363509;19;20101;-62
2022/06/30 00:17:03;;;;;;;5.75;5.22;;;20.30;17.00;;;;;;7381896;19;20025;-62
2022/06/30 00:19:33;;;;;;;7.65;5.95;;;20.30;17.50;;;;;;7365018;19;20011;-61
2022/06/30 00:22:05;;;;;;;7.05;5.32;;;20.30;17.60;;;;;;7363941;19;20021;-61
2022/06/30 00:24:35;;;;;;;7.75;4.90;;;20.30;17.30;;;;;;7365527;19;20011;-61
2022/06/30 00:27:08;;;;;;;7.07;5.68;;;20.30;14.80;;;;;;7364946;19;20082;-61
2022/06/30 00:29:38;;;;;;;14.02;5.88;;;20.40;13.70;;;;;;7366069;19;20025;-61
2022/06/30 00:32:09;;;;;;;6.72;5.50;;;20.40;12.80;;;;;;7384693;19;20015;-60
2022/06/30 00:34:39;;;;;;;7.28;5.72;;;20.40;12.70;;;;;;7362233;19;20011;-61
2022/06/30 00:37:09;;;;;;;8.77;6.78;;;20.50;12.40;;;;;;7361325;19;20041;-61
2022/06/30 00:39:39;;;;;;;7.47;6.20;;;20.40;12.50;;;;;;7362151;19;20017;-61
2022/06/30 00:42:12;;;;;;;9.10;6.78;;;20.40;13.90;;;;;;7362126;19;20021;-61
2022/06/30 00:44:42;;;;;;;7.93;6.50;;;20.40;14.20;;;;;;7362362;19;20020;-61
2022/06/30 00:47:12;;;;;;;9.68;6.85;;;20.40;14.90;;;;;;7382032;19;20011;-61
2022/06/30 00:49:41;;;;;;;9.70;6.85;;;20.40;13.80;;;;;;7361661;19;20500;-61
2022/06/30 00:52:13;;;;;;;12.30;8.38;;;20.50;14.40;;;;;;7362255;19;20026;-61
2022/06/30 00:54:44;;;;;;;11.05;8.02;;;20.40;14.40;;;;;;7362246;19;20014;-61
2022/06/30 00:57:19;;;;;;;9.07;7.80;;;20.30;14.80;;;;;;7362057;19;20072;-61
2022/06/30 00:59:50;;;;;;;13.77;8.48;;;20.30;16.20;;;;;;7363439;19;20014;-61
2022/06/30 01:02:21;;;;;;;11.70;7.93;;;20.40;15.90;;;;;;7383514;19;20035;-62
2022/06/30 01:04:55;;;;;;;12.45;8.75;;;20.40;16.00;;;;;;7361785;19;20014;-61
2022/06/30 01:07:25;;;;;;;11.75;8.85;;;20.40;16.50;;;;;;7360537;19;20015;-61
2022/06/30 01:12:46;;;;;;;9.70;7.75;;;20.30;17.30;;;;;;7361642;19;20015;-61
2022/06/30 01:15:17;;;;;;;11.60;7.65;;;20.10;18.10;;;;;;7362308;19;20014;-62
2022/06/30 01:17:49;;;;;;;8.48;7.50;;;20.10;17.70;;;;;;7364190;19;20015;-62
2022/06/30 01:20:26;;;;;;;9.32;7.22;;;20.20;17.30;;;;;;7383072;19;20014;-61
2022/06/30 01:22:59;;;;;;;8.80;7.90;;;20.30;17.40;;;;;;7364334;19;20463;-60
2022/06/30 01:25:29;;;;;;;8.88;7.72;;;20.30;17.20;;;;;;7363628;19;20386;-60
2022/06/30 01:27:59;;;;;;;12.15;8.15;;;20.20;17.20;;;;;;7361363;19;20015;-60
2022/06/30 01:30:29;;;;;;;11.95;8.15;;;20.00;19.10;;;;;;7361766;19;20021;-61
2022/06/30 01:32:59;;;;;;;12.55;8.18;;;20.00;19.80;;;;;;7361994;19;20029;-60
2022/06/30 01:35:29;;;;;;;10.13;8.80;;;19.90;20.10;;;;;;7360824;19;20056;-61
2022/06/30 01:38:02;;;;;;;10.27;9.05;;;20.00;20.40;;;;;;7382247;19;20018;-61
2022/06/30 01:40:35;;;;;;;11.40;8.90;;;20.00;20.30;;;;;;7360463;19;20078;-61
2022/06/30 01:43:11;;;;;;;11.32;8.98;;;19.90;20.90;;;;;;7360028;19;20010;-59
2022/06/30 01:45:42;;;;;;;10.80;9.68;;;19.90;21.80;;;;;;7360106;19;20761;-61
2022/06/30 01:48:12;;;;;;;12.88;8.95;;;19.90;21.80;;;;;;7360649;19;20366;-60
2022/06/30 01:50:42;;;;;;;13.73;9.77;;;19.90;21.80;;;;;;7361967;19;20529;-61
2022/06/30 01:53:15;;;;;;;12.43;10.07;;;19.90;21.80;;;;;;7389329;19;20018;-60
2022/06/30 01:55:45;;;;;;;11.20;9.25;;;19.80;22.50;;;;;;7367855;19;20486;-60
2022/06/30 01:58:15;;;;;;;11.68;9.30;;;19.80;23.40;;;;;;7367626;19;20466;-60
2022/06/30 02:00:45;;;;;;;12.05;9.73;;;19.70;24.30;;;;;;7369344;19;20014;-61
2022/06/30 02:03:15;;;;;;;15.15;9.07;;;19.70;24.40;;;;;;7368052;19;20128;-61
2022/06/30 02:05:45;;;;;;;14.95;9.63;;;19.70;24.70;;;;;;7366991;19;20042;-61
2022/06/30 02:08:18;;;;;;;13.68;9.32;;;19.70;24.70;;;;;;7389081;19;20007;-61
2022/06/30 02:10:47;;;;;;;11.20;9.63;;;19.60;24.80;;;;;;7367559;19;20021;-60
2022/06/30 02:13:18;;;;;;;15.70;9.18;;;19.50;26.40;;;;;;7370122;19;20017;-61
2022/06/30 02:15:48;;;;;;;10.37;9.30;;;19.60;26.40;;;;;;7365154;19;20020;-61
2022/06/30 02:18:18;;;;;;;11.07;9.55;;;19.50;26.90;;;;;;7366887;19;20308;-60
2022/06/30 02:20:49;;;;;;;11.48;9.88;;;19.40;28.40;;;;;;7370240;19;20037;-62
2022/06/30 02:23:21;;;;;;;12.40;9.73;;;19.40;28.50;;;;;;7392070;19;20026;-62
2022/06/30 02:25:51;;;;;;;12.40;10.38;;;19.40;28.50;;;;;;7369238;19;20018;-62
2022/06/30 02:28:21;;;;;;;14.30;11.15;;;19.40;29.50;;;;;;7366581;19;20529;-61
2022/06/30 02:30:51;;;;;;;19.67;11.13;;;19.40;29.60;;;;;;7366620;19;20010;-61
2022/06/30 02:33:20;;;;;;;13.40;10.98;;;19.40;29.80;;;;;;7367716;19;20007;-62
2022/06/30 02:35:50;;;;;;;13.55;11.00;;;19.40;30.40;;;;;;7365996;19;20414;-61
2022/06/30 02:38:23;;;;;;;12.82;11.48;;;19.40;31.20;;;;;;7385971;19;20025;-61
2022/06/30 02:40:53;;;;;;;13.45;10.65;;;19.40;30.70;;;;;;7366123;19;20544;-61
2022/06/30 02:43:22;;;;;;;12.35;11.00;;;19.50;30.10;;;;;;7365584;19;20021;-62
2022/06/30 02:45:52;;;;;;;15.57;11.80;;;19.40;30.10;;;;;;7364870;19;20089;-61
2022/06/30 02:48:22;;;;;;;16.90;10.70;;;19.30;30.50;;;;;;7366277;19;20501;-61
2022/06/30 02:50:52;;;;;;;12.90;11.50;;;19.30;31.90;;;;;;7366485;19;20624;-62
2022/06/30 02:53:25;;;;;;;14.48;11.75;;;19.30;31.50;;;;;;7383477;19;20025;-62
2022/06/30 02:55:54;;;;;;;16.38;11.35;;;19.30;31.00;;;;;;7388189;19;20024;-61
2022/06/30 02:58:24;;;;;;;12.30;11.00;;;19.20;31.60;;;;;;7365047;19;20013;-61
2022/06/30 03:00:54;;;;;;;11.77;9.95;;;19.30;32.00;;;;;;7366959;19;20466;-61
2022/06/30 03:03:24;;;;;;;13.73;10.82;;;19.30;32.20;;;;;;7365760;19;20019;-61
2022/06/30 03:05:54;;;;;;;13.50;11.75;;;19.20;31.70;;;;;;7364676;19;20021;-61
2022/06/30 03:08:26;;;;;;;16.33;11.43;;;19.20;32.00;;;;;;7372750;19;20025;-62
2022/06/30 03:10:56;;;;;;;14.85;11.48;;;19.20;32.30;;;;;;7390650;19;20455;-61
2022/06/30 03:13:26;;;;;;;14.38;11.90;;;19.10;33.40;;;;;;7364935;19;20375;-61
2022/06/30 03:15:55;;;;;;;12.77;11.48;;;19.10;32.70;;;;;;7367029;19;20020;-62
2022/06/30 03:18:25;;;;;;;11.85;10.65;;;19.10;33.60;;;;;;7363871;19;20014;-61
2022/06/30 03:20:56;;;;;;;15.23;11.40;;;19.00;34.40;;;;;;7365581;19;20492;-60
2022/06/30 03:23:29;;;;;;;14.52;11.38;;;19.10;34.90;;;;;;7368351;19;20089;-60
2022/06/30 03:25:58;;;;;;;15.60;11.32;;;19.00;34.30;;;;;;7389169;19;20029;-60
2022/06/30 03:28:28;;;;;;;13.38;11.27;;;19.00;35.90;;;;;;7364722;19;20015;-61
2022/06/30 03:30:58;;;;;;;12.88;11.52;;;18.90;36.40;;;;;;7364607;19;20020;-61
2022/06/30 03:33:29;;;;;;;13.75;10.80;;;18.90;36.20;;;;;;7365254;19;20515;-60
2022/06/30 03:35:59;;;;;;;13.70;11.27;;;19.00;35.50;;;;;;7364038;19;20488;-61
2022/06/30 03:38:32;;;;;;;12.38;10.73;;;18.90;35.80;;;;;;7362976;19;20025;-61
2022/06/30 03:41:01;;;;;;;11.98;10.80;;;18.90;36.30;;;;;;7385639;19;20018;-60
2022/06/30 03:43:31;;;;;;;15.00;11.52;;;19.00;35.80;;;;;;7363787;19;20447;-60
2022/06/30 03:46:01;;;;;;;13.85;11.45;;;19.10;35.00;;;;;;7363064;19;20011;-60
2022/06/30 03:48:35;;;;;;;11.52;9.88;;;19.40;32.50;;;;;;7364786;19;20398;-60
2022/06/30 03:51:05;;;;;;;11.43;9.63;;;19.90;27.30;;;;;;7364309;19;20010;-61
2022/06/30 03:53:38;;;;;;;13.68;9.75;;;20.30;22.70;;;;;;7363882;19;20404;-61
2022/06/30 03:56:08;;;;;;;10.32;9.25;;;20.80;18.60;;;;;;7386716;19;20547;-61
2022/06/30 03:58:38;;;;;;;9.35;8.48;;;21.00;15.30;;;;;;7361554;19;20486;-61
2022/06/30 04:01:07;;;;;;;9.57;7.60;;;21.30;14.10;;;;;;7362649;19;20018;-61
2022/06/30 04:03:37;;;;;;;9.95;7.53;;;21.10;12.10;;;;;;7365588;19;20478;-61
2022/06/30 04:06:08;;;;;;;9.40;8.18;;;21.90;9.20;;;;;;7365101;19;20424;-61
2022/06/30 04:08:40;;;;;;;10.35;7.53;;;21.90;6.70;;;;;;7364218;19;20784;-61
2022/06/30 04:11:10;;;;;;;8.98;7.75;;;21.50;8.30;;;;;;7386455;19;20020;-61
2022/06/30 04:13:40;;;;;;;9.95;7.28;;;21.90;6.70;;;;;;7365032;19;20014;-61
2022/06/30 04:16:10;;;;;;;12.80;7.15;;;22.80;1.70;;;;;;7361690;19;20014;-61
2022/06/30 04:18:42;;;;;;;9.00;7.22;;;22.40;1.00;;;;;;7363029;19;20010;-61
2022/06/30 04:21:13;;;;;;;10.48;7.25;;;22.10;1.00;;;;;;7362915;19;20699;-61
2022/06/30 04:23:45;;;;;;;12.75;8.02;;;23.00;1.00;;;;;;7366554;19;20341;-61
2022/06/30 04:26:15;;;;;;;11.05;8.15;;;23.60;1.00;;;;;;7387437;19;20085;-61
2022/06/30 04:28:45;;;;;;;11.95;8.10;;;23.90;1.00;;;;;;7362346;19;20099;-61
2022/06/30 04:33:57;;;;;;;14.18;9.45;;;25.30;1.00;;;;;;7363158;19;20015;-61
2022/06/30 04:36:28;;;;;;;12.98;9.15;;;25.50;1.00;;;;;;7361472;19;20370;-61
2022/06/30 04:39:00;;;;;;;10.95;9.18;;;25.10;1.00;;;;;;7362050;19;20011;-59
2022/06/30 04:41:27;;;;;;;10.77;8.77;;;25.70;1.00;;;;;;7362017;19;20643;-61
2022/06/30 04:43:58;;;;;;;12.40;8.90;;;25.60;1.00;;;;;;7383698;19;20020;-61
2022/06/30 04:46:29;;;;;;;12.25;9.23;;;24.70;1.00;;;;;;7360331;19;20090;-61
2022/06/30 04:48:59;;;;;;;9.98;9.00;;;25.10;1.00;;;;;;7362708;19;20014;-61
2022/06/30 04:51:29;;;;;;;11.05;9.82;;;25.90;1.00;;;;;;7361870;19;20017;-62
2022/06/30 04:54:02;;;;;;;10.82;9.13;;;25.10;1.00;;;;;;7362651;19;20304;-61
2022/06/30 04:56:32;;;;;;;11.40;9.35;;;26.10;1.00;;;;;;7363288;19;20022;-62
2022/06/30 04:59:02;;;;;;;11.45;9.07;;;25.90;1.00;;;;;;7382658;19;20007;-61
2022/06/30 05:01:32;;;;;;;12.90;9.30;;;26.50;1.00;;;;;;7364015;19;20011;-61
2022/06/30 05:04:02;;;;;;;9.93;8.05;;;26.30;1.00;;;;;;7361846;19;20021;-61
2022/06/30 05:06:32;;;;;;;11.27;8.50;;;27.00;1.00;;;;;;7361352;19;20016;-62
2022/06/30 05:09:04;;;;;;;8.80;7.75;;;27.50;1.00;;;;;;7363873;19;20011;-61
2022/06/30 05:11:35;;;;;;;11.75;7.70;;;27.00;1.00;;;;;;7360823;19;20533;-61
2022/06/30 05:14:05;;;;;;;9.48;7.65;;;27.60;1.00;;;;;;7382943;19;20034;-62
2022/06/30 05:16:35;;;;;;;10.43;7.00;;;26.60;1.00;;;;;;7358181;19;20017;-61
2022/06/30 05:19:04;;;;;;;9.25;7.30;;;26.70;1.00;;;;;;7359300;19;20014;-62
2022/06/30 05:21:34;;;;;;;8.10;7.30;;;27.00;1.00;;;;;;7360340;19;20496;-62
2022/06/30 05:26:51;;;;;;;8.15;7.22;;;26.50;1.00;;;;;;7362609;19;20377;-61
2022/06/30 05:29:20;;;;;;;9.10;7.50;;;25.90;1.00;;;;;;7389701;19;20513;-62
2022/06/30 05:31:50;;;;;;;11.85;9.00;;;26.80;1.00;;;;;;7366570;19;20527;-63
2022/06/30 05:34:20;;;;;;;11.23;8.20;;;26.80;1.00;;;;;;7367141;19;20014;-61
2022/06/30 05:36:51;;;;;;;11.75;8.88;;;27.20;1.00;;;;;;7367052;19;20019;-62
2022/06/30 05:39:23;;;;;;;10.25;8.57;;;27.00;1.00;;;;;;7367006;19;20508;-62
2022/06/30 05:41:53;;;;;;;10.27;8.63;;;26.80;1.00;;;;;;7366671;19;20011;-62
2022/06/30 05:44:23;;;;;;;9.95;8.75;;;26.60;1.00;;;;;;7377565;19;20179;-62
2022/06/30 05:46:54;;;;;;;9.63;8.27;;;27.00;1.00;;;;;;7385852;19;20014;-60
2022/06/30 05:49:24;;;;;;;8.32;7.53;;;27.50;1.00;;;;;;7366624;19;20018;-61
2022/06/30 05:51:54;;;;;;;11.73;8.32;;;26.90;1.00;;;;;;7366762;19;20018;-61
2022/06/30 05:54:27;;;;;;;10.02;8.25;;;26.50;1.00;;;;;;7365583;19;20011;-61
2022/06/30 05:56:57;;;;;;;14.65;8.35;;;26.70;1.00;;;;;;7366575;19;20014;-61
2022/06/30 05:59:27;;;;;;;10.18;7.97;;;26.30;1.00;;;;;;7366407;19;20348;-61
2022/06/30 06:01:56;;;;;;;13.85;8.20;;;26.60;1.00;;;;;;7387874;19;20025;-61
2022/06/30 06:04:26;;;;;;;10.90;7.07;;;27.00;1.00;;;;;;7370111;19;20015;-62
2022/06/30 06:06:57;;;;;;;11.02;8.05;;;27.00;1.00;;;;;;7366784;19;20082;-61
2022/06/30 06:09:29;;;;;;;10.20;7.75;;;25.20;1.00;;;;;;7366282;19;20011;-61
2022/06/30 06:11:59;;;;;;;11.77;8.10;;;24.20;1.00;;;;;;7366358;19;20492;-61
2022/06/30 06:14:29;;;;;;;12.00;8.50;;;23.90;1.00;;;;;;7366997;19;20371;-61
2022/06/30 06:16:59;;;;;;;8.50;7.40;;;23.40;1.00;;;;;;7385575;19;20014;-61
2022/06/30 06:19:29;;;;;;;12.45;7.45;;;24.10;1.00;;;;;;7361780;19;20010;-61
2022/06/30 06:21:59;;;;;;;9.18;7.38;;;24.20;1.00;;;;;;7364406;19;20403;-62
2022/06/30 06:24:31;;;;;;;11.48;7.10;;;24.10;1.00;;;;;;7365603;19;20015;-61
2022/06/30 06:27:01;;;;;;;11.10;7.05;;;24.00;1.00;;;;;;7361444;19;20015;-61
2022/06/30 06:29:29;;;;;;;7.15;6.00;;;24.00;1.00;;;;;;7363829;19;20015;-62
2022/06/30 06:31:59;;;;;;;8.15;6.25;;;24.80;1.00;;;;;;7385756;19;20015;-62
2022/06/30 06:34:28;;;;;;;9.45;6.32;;;25.50;1.00;;;;;;7361952;19;20015;-62
2022/06/30 06:36:58;;;;;;;7.65;6.32;;;25.70;1.00;;;;;;7361298;19;20482;-62
2022/06/30 06:39:32;;;;;;;13.60;5.75;;;26.10;1.00;;;;;;7362146;19;20010;-61
2022/06/30 06:42:01;;;;;;;6.90;6.20;;;26.30;1.00;;;;;;7363583;19;20010;-62
2022/06/30 06:44:31;;;;;;;6.97;5.60;;;27.00;1.00;;;;;;7362663;19;20024;-63
2022/06/30 06:47:01;;;;;;;7.70;5.53;;;26.90;1.00;;;;;;7382466;19;20033;-62
2022/06/30 06:49:31;;;;;;;6.43;5.13;;;26.40;1.00;;;;;;7362003;19;20375;-62
2022/06/30 06:52:01;;;;;;;6.35;5.45;;;26.30;1.00;;;;;;7363478;19;20051;-61
2022/06/30 06:54:34;;;;;;;13.45;5.50;;;25.90;1.00;;;;;;7364437;19;20351;-61
2022/06/30 06:57:07;;;;;;;7.03;5.18;;;26.10;1.00;;;;;;7361896;19;20090;-61
2022/06/30 06:59:37;;;;;;;7.80;4.63;;;25.90;1.00;;;;;;7362857;19;20081;-62
2022/06/30 07:02:08;;;;;;;8.18;5.85;;;26.00;1.00;;;;;;7389066;19;20043;-62
2022/06/30 07:04:38;;;;;;;6.63;5.03;;;25.80;1.00;;;;;;7361279;19;20018;-62
2022/06/30 07:07:08;;;;;;;8.85;5.25;;;25.60;1.00;;;;;;7364515;19;20029;-62
2022/06/30 07:09:41;;;;;;;10.88;6.00;;;26.00;1.00;;;;;;7364313;19;20537;-62
2022/06/30 07:12:11;;;;;;;6.63;5.32;;;25.10;1.00;;;;;;7365722;19;20020;-63
2022/06/30 07:14:41;;;;;;;7.78;5.60;;;25.90;1.00;;;;;;7362127;19;20018;-62
2022/06/30 07:17:11;;;;;;;7.75;5.57;;;25.50;1.00;;;;;;7383029;19;20030;-61
2022/06/30 07:19:42;;;;;;;10.65;5.82;;;25.50;1.00;;;;;;7216941;19;2874932;-62
2022/06/30 07:22:12;;;;;;;9.55;6.30;;;25.30;1.00;;;;;;7366968;19;20078;-62
2022/06/30 07:24:44;;;;;;;8.50;5.90;;;25.50;1.00;;;;;;7366311;19;20483;-62
2022/06/30 07:27:14;;;;;;;12.90;5.93;;;25.80;1.00;;;;;;7365718;19;20010;-63
2022/06/30 07:29:44;;;;;;;11.88;5.97;;;25.20;1.00;;;;;;7366966;19;20628;-62
2022/06/30 07:32:14;;;;;;;7.53;6.00;;;25.70;1.00;;;;;;7389682;19;20018;-62
2022/06/30 07:34:44;;;;;;;8.98;5.88;;;25.50;1.00;;;;;;7367335;19;20011;-62
2022/06/30 07:37:14;;;;;;;11.00;5.63;;;25.50;1.00;;;;;;7364504;19;20078;-62
2022/06/30 07:39:46;;;;;;;7.65;5.35;;;25.60;1.00;;;;;;7365195;19;20018;-61
2022/06/30 07:42:16;;;;;;;7.10;5.25;;;25.40;1.00;;;;;;7366249;19;20010;-61
2022/06/30 07:44:46;;;;;;;5.55;4.57;;;25.30;1.00;;;;;;7364529;19;20010;-62
2022/06/30 07:47:16;;;;;;;5.47;4.63;;;26.00;1.00;;;;;;7382770;19;20024;-61
2022/06/30 07:49:46;;;;;;;8.60;5.63;;;25.80;1.00;;;;;;7364319;19;20025;-62
2022/06/30 07:52:16;;;;;;;8.52;4.85;;;25.70;1.00;;;;;;7363787;19;20015;-61
2022/06/30 07:54:54;;;;;;;9.73;4.60;;;25.40;1.00;;;;;;7362559;19;20377;-61
2022/06/30 07:57:25;;;;;;;6.25;4.50;;;25.90;1.00;;;;;;7365259;19;20015;-61
2022/06/30 08:00:02;;;;;;;9.00;4.20;;;26.20;1.00;;;;;;7365482;19;20399;-61
2022/06/30 08:02:32;;;;;;;6.47;4.07;;;26.50;1.00;;;;;;7363405;19;20018;-61
2022/06/30 08:05:02;;;;;;;6.47;4.43;;;26.50;1.00;;;;;;7384683;19;20014;-61
2022/06/30 08:07:32;;;;;;;7.13;5.60;;;25.90;1.00;;;;;;7361618;19;20015;-62
2022/06/30 08:10:05;;;;;;;5.90;5.10;;;26.40;1.00;;;;;;7362519;19;20532;-62
2022/06/30 08:12:35;;;;;;;5.70;4.70;;;26.10;1.00;;;;;;7363091;19;20017;-62
2022/06/30 08:15:06;;;;;;;7.43;4.53;;;26.50;1.00;;;;;;7362210;19;20042;-61
2022/06/30 08:17:36;;;;;;;6.25;4.78;;;26.80;1.00;;;;;;7360145;19;20073;-61
2022/06/30 08:20:07;;;;;;;7.13;5.00;;;27.00;1.00;;;;;;7382794;19;20022;-61
2022/06/30 08:22:37;;;;;;;5.82;4.88;;;26.90;1.00;;;;;;7363237;19;20024;-61
2022/06/30 08:25:12;;;;;;;6.22;4.68;;;26.60;1.00;;;;;;7365958;19;20014;-62
2022/06/30 08:27:41;;;;;;;12.00;4.57;;;26.90;1.00;;;;;;7361148;19;20011;-62
2022/06/30 08:30:12;;;;;;;7.95;4.70;;;27.10;1.00;;;;;;7364992;19;20021;-62
2022/06/30 08:32:43;;;;;;;13.43;5.63;;;26.70;1.00;;;;;;7364126;19;20071;-62
2022/06/30 08:35:13;;;;;;;12.90;4.80;;;26.80;1.00;;;;;;7384423;19;20014;-62
2022/06/30 08:37:44;;;;;;;10.50;9.10;;;26.60;1.00;;;;;;7362990;19;20489;-62
2022/06/30 08:42:59;;;;;;;7.15;4.50;;;26.80;1.00;;;;;;7364814;19;20015;-61
2022/06/30 08:45:31;;;;;;;9.20;5.10;;;27.40;1.00;;;;;;7361684;19;20010;-62
2022/06/30 08:48:01;;;;;;;7.13;5.05;;;27.10;1.00;;;;;;7361944;19;20491;-62
2022/06/30 08:50:31;;;;;;;8.10;5.00;;;27.20;1.00;;;;;;7364574;19;20040;-63
2022/06/30 08:53:04;;;;;;;7.57;4.57;;;27.30;1.00;;;;;;7385770;19;20028;-62
2022/06/30 08:55:37;;;;;;;9.18;4.80;;;27.70;1.00;;;;;;7362530;19;20412;-61
2022/06/30 08:58:09;;;;;;;4.57;4.18;;;27.60;1.00;;;;;;7363573;19;20028;-62
2022/06/30 09:00:42;;;;;;;7.28;4.35;;;27.50;1.00;;;;;;7362823;19;20362;-62
2022/06/30 09:03:12;;;;;;;6.15;4.30;;;28.00;1.00;;;;;;7364640;19;20039;-62
2022/06/30 09:05:42;;;;;;;4.90;3.97;;;28.10;1.00;;;;;;7361875;19;22482;-62
2022/06/30 09:08:12;;;;;;;6.28;4.43;;;28.20;1.00;;;;;;7383781;19;20015;-62
2022/06/30 09:11:00;;;;;;;5.00;4.00;;;28.10;1.00;;;;;;7363350;19;20058;-62
2022/06/30 09:13:42;;;;;;;4.85;3.88;;;28.40;1.00;;;;;;7362687;19;20021;-62
2022/06/30 09:16:13;;;;;;;4.70;4.03;;;28.30;1.00;;;;;;7362169;19;20028;-62
2022/06/30 09:18:43;;;;;;;6.07;3.97;;;28.00;1.00;;;;;;7362937;19;20026;-62
2022/06/30 09:21:18;;;;;;;6.25;3.92;;;28.30;1.00;;;;;;7361314;19;20098;-62
2022/06/30 09:23:49;;;;;;;4.65;3.95;;;28.20;1.00;;;;;;7362883;19;20015;-61
2022/06/30 09:26:24;;;;;;;4.43;3.67;;;28.40;1.00;;;;;;7383522;19;20542;-62
2022/06/30 09:28:56;;;;;;;4.78;3.38;;;28.30;1.00;;;;;;7364836;19;20018;-62
2022/06/30 09:31:46;;;;;;;3.47;2.97;;;28.70;1.00;;;;;;7363633;19;20045;-63
2022/06/30 09:34:19;;;;;;;3.72;2.70;;;28.20;1.00;;;;;;7360727;19;20014;-62
2022/06/30 09:36:51;;;;;;;9.05;3.47;;;28.10;1.00;;;;;;7358926;19;20493;-62
2022/06/30 09:39:23;;;;;;;6.63;3.00;;;28.40;1.00;;;;;;7362396;19;20355;-61
2022/06/30 09:41:56;;;;;;;5.28;3.45;;;28.90;1.00;;;;;;7360389;19;20036;-61
2022/06/30 09:44:34;;;;;;;3.00;2.60;;;28.80;1.00;;;;;;7362909;19;20306;-62
2022/06/30 09:47:06;;;;;;;4.72;3.35;;;28.60;1.00;;;;;;7383239;19;20010;-61
2022/06/30 09:49:39;;;;;;;4.40;2.85;;;28.90;1.00;;;;;;7363363;19;20011;-61
2022/06/30 09:52:19;;;;;;;5.55;3.30;;;28.50;1.00;;;;;;7360002;19;20018;-61
2022/06/30 09:54:57;;;;;;;4.13;2.88;;;27.90;1.00;;;;;;7362523;19;20805;-61
2022/06/30 09:57:33;;;;;;;4.78;3.28;;;28.40;1.00;;;;;;7360511;19;20010;-62
2022/06/30 10:00:06;;;;;;;6.57;3.75;;;28.00;1.00;;;;;;7362409;19;20101;-61
2022/06/30 10:02:39;;;;;;;7.03;3.10;;;28.40;1.00;;;;;;7361931;19;20010;-65
2022/06/30 10:05:11;;;;;;;5.67;3.07;;;28.70;1.00;;;;;;7384587;19;20078;-62
2022/06/30 10:07:41;;;;;;;9.23;3.38;;;29.20;1.00;;;;;;7361746;19;20030;-63
2022/06/30 10:10:14;;;;;;;5.28;3.40;;;29.20;1.00;;;;;;7359643;19;20042;-63
2022/06/30 10:12:47;;;;;;;9.98;3.40;;;29.20;1.00;;;;;;7364590;19;20010;-61
2022/06/30 10:15:19;;;;;;;4.15;2.67;;;29.10;1.00;;;;;;7369377;19;20485;-63
2022/06/30 10:17:53;;;;;;;5.07;3.40;;;29.10;1.00;;;;;;7368962;19;20117;-62
2022/06/30 10:20:23;;;;;;;5.50;3.33;;;29.10;1.00;;;;;;7380738;19;20015;-63
2022/06/30 10:22:53;;;;;;;5.40;3.10;;;29.40;1.00;;;;;;7389903;19;20094;-63
2022/06/30 10:25:23;;;;;;;6.05;3.63;;;29.20;1.00;;;;;;7367667;19;20037;-62
2022/06/30 10:27:57;;;;;;;8.43;3.00;;;29.60;1.00;;;;;;7369241;19;20157;-62
2022/06/30 10:30:35;;;;;;;4.15;2.90;;;29.40;1.00;;;;;;7369293;19;20018;-62
2022/06/30 10:33:12;;;;;;;5.53;3.40;;;29.00;1.00;;;;;;7368251;19;20398;-63
2022/06/30 10:35:48;;;;;;;5.43;3.10;;;29.10;1.00;;;;;;7368355;19;20157;-62
2022/06/30 10:38:28;;;;;;;7.53;3.60;;;29.30;1.00;;;;;;7388991;19;20366;-62
2022/06/30 10:41:10;;;;;;;4.47;2.88;;;29.10;1.00;;;;;;7366982;19;20019;-62
2022/06/30 10:44:21;;;;;;;6.78;3.00;;;29.10;1.00;;;;;;7368957;19;20653;-63
2022/06/30 10:47:09;;;;;;;4.07;2.70;;;29.60;1.00;;;;;;7364438;19;20048;-62
2022/06/30 10:49:59;;;;;;;3.05;2.60;;;29.60;1.00;;;;;;7364910;19;20011;-63
2022/06/30 10:52:37;;;;;;;6.32;3.00;;;29.60;1.00;;;;;;7367604;19;20018;-62
2022/06/30 10:55:09;;;;;;;6.13;3.30;;;29.90;1.00;;;;;;7368091;19;20020;-62
2022/06/30 10:58:10;;;;;;;5.07;2.50;;;29.60;1.00;;;;;;7367055;19;20034;-61
2022/06/30 11:01:03;;;;;;;4.63;2.55;;;30.00;1.00;;;;;;7367547;19;20517;-64
2022/06/30 11:04:04;;;;;;;6.88;3.17;;;30.10;1.00;;;;;;7367461;19;20018;-62
2022/06/30 11:07:12;;;;;;;4.85;3.03;;;30.10;1.00;;;;;;7366548;19;20417;-64
2022/06/30 11:10:22;;;;;;;5.97;3.05;;;29.90;1.00;;;;;;7365647;19;20128;-62
2022/06/30 11:13:11;;;;;;;6.57;2.83;;;29.20;1.00;;;;;;7363015;19;20368;-62
2022/06/30 11:15:58;;;;;;;3.78;2.95;;;29.80;1.00;;;;;;7364278;19;20014;-62
2022/06/30 11:18:31;;;;;;;3.45;2.95;;;30.00;1.00;;;;;;7362907;19;20089;-62
2022/06/30 11:21:00;;;;;;;3.70;2.80;;;29.80;1.00;;;;;;7366946;19;20006;-62
2022/06/30 11:23:33;;;;;;;4.75;2.80;;;30.10;1.00;;;;;;7363821;19;20082;-61
2022/06/30 11:28:46;;;;;;;;;;;30.40;1.00;;;;;;7367182;19;20031;-63
2022/06/30 11:31:32;;;;;;;4.90;3.00;;;30.30;1.00;;;;;;7366233;19;20276;-62
2022/06/30 11:34:08;;;;;;;8.10;4.93;;;30.50;1.00;;;;;;7365330;19;20354;-62
2022/06/30 11:36:40;;;;;;;3.33;3.00;;;30.00;1.00;;;;;;7363781;19;20014;-62
2022/06/30 11:39:11;;;;;;;3.53;2.97;;;30.10;1.00;;;;;;7364640;19;20034;-61
2022/06/30 11:44:28;;;;;;;4.82;2.88;;;30.00;1.00;;;;;;7365525;19;20024;-62
2022/06/30 11:47:00;;;;;;;4.65;3.17;;;30.00;1.00;;;;;;7382219;19;20035;-63
2022/06/30 11:49:44;;;;;;;6.30;2.80;;;30.30;1.00;;;;;;7363032;19;20458;-61
2022/06/30 11:52:20;;;;;;;10.55;2.85;;;30.20;1.00;;;;;;7363614;19;20018;-62
2022/06/30 11:54:51;;;;;;;7.95;3.20;;;30.30;1.00;;;;;;7364245;19;20010;-63
2022/06/30 11:57:23;;;;;;;4.30;3.17;;;30.50;1.00;;;;;;7363440;19;20014;-62
2022/06/30 12:00:00;;;;;;;7.60;4.10;;;30.30;1.00;;;;;;7366264;19;20021;-61
2022/06/30 12:02:32;;;;;;;5.03;3.75;;;30.60;1.00;;;;;;7364865;19;20014;-62
2022/06/30 12:05:09;;;;;;;6.05;2.88;;;31.00;1.00;;;;;;7388485;19;20018;-62
2022/06/30 12:07:40;;;;;;;5.47;3.00;;;31.10;1.00;;;;;;7362859;19;20017;-62
2022/06/30 12:10:12;;;;;;;5.38;2.88;;;30.70;1.00;;;;;;7365733;19;20021;-61
2022/06/30 12:12:42;;;;;;;3.97;3.17;;;30.50;1.00;;;;;;7365306;19;20146;-62
2022/06/30 12:15:15;;;;;;;6.72;2.80;;;30.90;1.00;;;;;;7363746;19;20014;-62
2022/06/30 12:17:52;;;;;;;6.18;3.45;;;30.70;1.00;;;;;;7360496;19;20041;-61
2022/06/30 12:20:27;;;;;;;4.50;2.70;;;30.80;1.00;;;;;;7385409;19;20017;-61
2022/06/30 12:22:57;;;;;;;6.32;3.00;;;30.90;1.00;;;;;;7364400;19;20010;-61
2022/06/30 12:25:27;;;;;;;3.95;2.97;;;30.20;1.00;;;;;;7364862;19;20035;-61
2022/06/30 12:27:58;;;;;;;4.63;2.80;;;30.70;1.00;;;;;;7363345;19;20031;-62
2022/06/30 12:30:38;;;;;;;10.05;3.10;;;30.50;1.00;;;;;;7363671;19;20090;-62
2022/06/30 12:33:10;;;;;;;5.63;2.88;;;30.40;1.00;;;;;;7365152;19;20011;-61
2022/06/30 12:35:43;;;;;;;4.18;3.03;;;30.50;1.00;;;;;;7363112;19;20015;-61
2022/06/30 12:38:14;;;;;;;4.43;2.90;;;30.90;1.00;;;;;;7387595;19;20039;-62
2022/06/30 12:40:44;;;;;;;5.65;2.90;;;30.70;1.00;;;;;;7364274;19;20018;-62
2022/06/30 12:43:18;;;;;;;6.13;3.10;;;30.60;1.00;;;;;;7363919;19;20009;-62
2022/06/30 12:45:55;;;;;;;4.72;3.05;;;30.90;1.00;;;;;;7363149;19;20018;-61
2022/06/30 12:48:47;;;;;;;8.70;3.28;;;31.00;1.00;;;;;;7362836;19;20042;-62
2022/06/30 12:51:43;;;;;;;7.55;3.65;;;31.40;1.00;;;;;;7360357;19;20078;-61
2022/06/30 12:54:16;;;;;;;4.22;2.85;;;31.50;1.00;;;;;;7360261;19;20041;-62
2022/06/30 12:56:50;;;;;;;;;;;31.20;1.00;;;;;;7362256;19;20554;-61
2022/06/30 12:59:22;;;;;;;4.72;3.47;;;30.90;1.00;;;;;;7383018;19;19919;-62
2022/06/30 13:01:57;;;;;;;6.55;3.55;;;30.90;1.00;;;;;;7359756;19;20017;-62
2022/06/30 13:04:28;;;;;;;6.72;2.97;;;31.10;1.00;;;;;;7359638;19;20014;-62
2022/06/30 13:07:02;;;;;;;5.75;3.13;;;30.90;1.00;;;;;;7360083;19;20039;-62
2022/06/30 13:09:36;;;;;;;6.10;3.20;;;31.00;1.00;;;;;;7361234;19;20019;-62
2022/06/30 13:12:07;;;;;;;3.70;3.00;;;30.90;1.00;;;;;;7361139;19;20025;-62
2022/06/30 13:14:38;;;;;;;4.53;3.10;;;30.70;1.00;;;;;;7360541;19;20022;-62
2022/06/30 13:17:08;;;;;;;10.52;3.65;;;31.00;1.00;;;;;;7380167;19;20041;-60
2022/06/30 13:19:38;;;;;;;5.38;3.20;;;31.00;1.00;;;;;;7359670;19;20014;-60
2022/06/30 13:22:11;;;;;;;6.10;3.40;;;31.20;1.00;;;;;;7360552;19;20025;-61
2022/06/30 13:24:41;;;;;;;5.55;3.03;;;31.10;1.00;;;;;;7362181;19;20009;-62
2022/06/30 13:27:12;;;;;;;3.65;3.08;;;31.20;1.00;;;;;;7361800;19;20045;-62
2022/06/30 13:29:43;;;;;;;4.32;3.22;;;30.90;1.00;;;;;;7360115;19;20040;-62
2022/06/30 13:32:13;;;;;;;4.32;2.80;;;31.10;1.00;;;;;;7382290;19;20018;-62
2022/06/30 13:34:42;;;;;;;5.75;3.25;;;31.30;1.00;;;;;;7364083;19;20010;-62